Tamassee, SC (29686)

6:03 PM EDT on July 25, 2016 (GMT -0400)
Lake Cherokee | | Change Station

Elev 1083 ft 34.91 °N, 83.06 °W | Updated 9 seconds ago

Scattered Clouds
Scattered Clouds
91.4 °F
Feels Like 103 °F
N
6.5
Wind Variable Wind from NNW
Gusts 9.8 mph

Today
High -- | Low -- °F
--% Chance of Precip.
Yesterday
High -- | Low -- °F
Precip. -- in
Pressure 29.94 in
Visibility 10.0 miles
Clouds Scattered Clouds 7000 ft
Heat Index 103 °F
Dew Point 76 °F
Humidity 60%
Rainfall 0.00 in
Snow Depth Not available.
6:36 AM 8:39 PM
Waning Gibbous, 62% visible
METAR KCEU 252154Z AUTO 30006KT 10SM SCT070 38/18 A2998 RMK AO2 SLP136 T03780178
Pressure 29.94 in
Visibility 10.0 miles
Clouds Scattered Clouds 7000 ft
Heat Index 103 °F
Dew Point 76 °F
Humidity 60%
Rainfall 0.00 in
Snow Depth Not available.
6:36 AM 8:39 PM
Waning Gibbous, 62% visible
METAR KCEU 252154Z AUTO 30006KT 10SM SCT070 38/18 A2998 RMK AO2 SLP136 T03780178
Record highs are possible for parts of the Northeast Monday and Tuesday, as parts of the central U.S. take a little breather from the worst of summer's dog day heat.

Expansive high pressure in the upper atmosphere will focus on parts of the East and West this week, sending heat indices well into the triple digits from the Mid-Atlantic states into the South.

10-Day Weather Forecast

Almanac

Astronomy

Jul. 25, 2016 Rise Set
Actual Time
Civil Twilight
Nautical Twilight
Astronomical Twilight
Moon
Length of Visible Light
Length of Day
Tomorrow will be .
, % of the Moon is Illuminated

Today's Extremes

State Highs State Lows

Community

WunderPhotos

Upload Photos

1,927,426 photos uploaded!

WunderBlog® & News

Nearby

Air Quality

  Air Quality AQ Index Pollutant
Not available.

Snow Depth

Station Depth Elevation

Earthquake Activity

City Distance Mag. Time & Date
Minimum magnitude displayed is 2.5.

Coastal Water Temperatures

Place Temperature

Stations

Nearby Weather Stations

Station Location Temp. Windchill Dew Point Humidity Wind Precip. Elev Updated Type
                   

Watches & Warnings

There are currently no watches in effect.